Time;durP1;ratioP1;P1;durP2;ratioP2;P2;SDS_P1;SDS_P2;PMS_P1;PMS_P2;Temp;Humidity;BMP_temperature;BMP_pressure;BME280_temperature;BME280_humidity;BME280_pressure;Samples;Min_cycle;Max_cycle;Signal;HPM_P1;HPM_P2
2023/12/06 00:00:55;;;;;;;;;;;3.80;99.90;;;;;;6739594;88;20030;-82
2023/12/06 00:10:57;;;;;;;;;;;3.80;99.90;;;;;;6733279;88;20070;-81
2023/12/06 00:20:58;;;;;;;;;;;3.80;99.90;;;;;;6744633;88;20045;-81
2023/12/06 00:30:58;;;;;;;;;;;3.70;99.90;;;;;;6732765;88;20070;-80
2023/12/06 00:40:59;;;;;;;;;;;3.70;99.90;;;;;;6733421;88;20553;-81
2023/12/06 00:51:01;;;;;;;;;;;3.70;99.90;;;;;;6734177;88;20063;-82
2023/12/06 01:01:02;;;;;;;;;;;3.70;99.90;;;;;;6738485;88;20063;-82
2023/12/06 01:11:02;;;;;;;;;;;3.60;99.90;;;;;;6742606;88;20572;-82
2023/12/06 01:21:03;;;;;;;;;;;3.60;99.90;;;;;;6732888;88;20050;-82
2023/12/06 01:31:03;;;;;;;;;;;3.40;99.90;;;;;;6738860;88;20550;-83
2023/12/06 01:41:04;;;;;;;;;;;3.30;99.90;;;;;;6742843;88;20138;-82
2023/12/06 01:51:05;;;;;;;;;;;3.30;99.90;;;;;;6745699;88;20313;-82
2023/12/06 02:01:05;;;;;;;;;;;3.10;99.90;;;;;;6733275;88;20074;-81
2023/12/06 02:11:06;;;;;;;;;;;3.00;99.90;;;;;;6744993;88;20101;-80
2023/12/06 02:21:07;;;;;;;;;;;3.00;99.90;;;;;;6731376;88;20031;-81
2023/12/06 02:31:07;;;;;;;;;;;2.90;99.90;;;;;;6734238;88;20747;-81
2023/12/06 02:41:09;;;;;;;;;;;2.80;99.90;;;;;;6729630;88;20084;-81
2023/12/06 02:51:10;;;;;;;;;;;2.60;99.90;;;;;;6743097;88;20077;-81
2023/12/06 03:01:10;;;;;;;;;;;2.30;99.90;;;;;;6751316;88;20068;-80
2023/12/06 03:11:11;;;;;;;;;;;2.20;99.90;;;;;;6748026;88;20063;-81
2023/12/06 03:21:11;;;;;;;;;;;2.10;99.90;;;;;;6751235;88;20026;-81
2023/12/06 03:31:12;;;;;;;;;;;2.00;99.90;;;;;;6737228;88;20063;-82
2023/12/06 03:41:12;;;;;;;;;;;1.90;99.90;;;;;;6694081;88;20041;-81
2023/12/06 03:51:13;;;;;;;;;;;1.80;99.90;;;;;;6690661;88;20071;-86
2023/12/06 04:01:13;;;;;;;;;;;1.90;99.90;;;;;;6698850;88;20039;-85
2023/12/06 04:11:14;;;;;;;;;;;1.90;99.90;;;;;;6726977;88;21009;-86
2023/12/06 04:21:14;;;;;;;;;;;2.00;99.90;;;;;;6734438;88;20022;-84
2023/12/06 04:31:15;;;;;;;;;;;2.00;99.90;;;;;;6730532;88;20040;-84
2023/12/06 04:41:16;;;;;;;;;;;1.90;99.90;;;;;;6734076;88;20027;-85
2023/12/06 04:51:17;;;;;;;;;;;1.90;99.90;;;;;;6733737;88;20093;-85
2023/12/06 05:01:17;;;;;;;;;;;1.90;99.90;;;;;;6733993;88;20084;-85
2023/12/06 05:11:18;;;;;;;;;;;2.00;99.90;;;;;;6733685;88;20096;-85
2023/12/06 05:21:18;;;;;;;;;;;2.00;99.90;;;;;;6733567;88;20047;-85
2023/12/06 05:31:18;;;;;;;;;;;2.00;99.90;;;;;;6729561;88;20843;-84
2023/12/06 05:41:19;;;;;;;;;;;2.00;99.90;;;;;;6733065;88;20031;-84
2023/12/06 05:51:19;;;;;;;;;;;2.00;99.90;;;;;;6733022;88;20560;-84
2023/12/06 06:01:20;;;;;;;;;;;2.10;99.90;;;;;;6738366;88;20102;-83
2023/12/06 06:11:20;;;;;;;;;;;2.20;99.90;;;;;;6731020;88;20644;-82
2023/12/06 06:21:21;;;;;;;;;;;2.30;99.90;;;;;;6738215;88;20087;-82
2023/12/06 06:31:21;;;;;;;;;;;2.30;99.90;;;;;;6744938;88;20085;-81
2023/12/06 06:41:24;;;;;;;;;;;2.40;99.90;;;;;;6737280;88;20071;-81
2023/12/06 06:51:51;;;;;;;;;;;2.40;99.90;;;;;;6734946;88;20019;-82
2023/12/06 07:01:52;;;;;;;;;;;2.50;99.90;;;;;;6728997;88;20078;-83
2023/12/06 07:11:53;;;;;;;;;;;2.50;99.90;;;;;;6727216;88;20557;-81
2023/12/06 07:21:53;;;;;;;;;;;2.60;99.90;;;;;;6728597;88;20059;-82
2023/12/06 07:31:54;;;;;;;;;;;2.60;99.90;;;;;;6741201;88;20027;-84
2023/12/06 07:41:54;;;;;;;;;;;2.70;99.90;;;;;;6751633;88;20736;-83
2023/12/06 07:51:55;;;;;;;;;;;2.70;99.90;;;;;;6734053;88;20052;-84
2023/12/06 08:01:55;;;;;;;;;;;2.80;99.90;;;;;;6733787;88;20053;-83
2023/12/06 08:11:56;;;;;;;;;;;2.90;99.90;;;;;;6733712;88;20128;-83
2023/12/06 08:21:57;;;;;;;;;;;2.90;99.90;;;;;;6714071;88;20576;-85
2023/12/06 08:31:57;;;;;;;;;;;2.90;99.90;;;;;;6713889;88;20041;-84
2023/12/06 08:41:59;;;;;;;;;;;3.00;99.90;;;;;;6713165;88;20080;-85
2023/12/06 08:52:00;;;;;;;;;;;3.10;99.90;;;;;;6713506;88;20666;-85
2023/12/06 09:02:00;;;;;;;;;;;3.10;99.90;;;;;;6714706;88;20050;-84
2023/12/06 09:12:01;;;;;;;;;;;3.30;99.90;;;;;;6713444;88;20669;-85
2023/12/06 09:22:05;;;;;;;;;;;3.30;99.90;;;;;;6727902;88;20087;-84
2023/12/06 09:32:08;;;;;;;;;;;3.40;99.90;;;;;;6731861;88;20653;-84
2023/12/06 09:42:36;;;;;;;;;;;3.50;99.90;;;;;;6729414;88;20124;-84
2023/12/06 09:52:57;;;;;;;;;;;3.60;99.90;;;;;;6634824;78;20579;-79
2023/12/06 10:02:58;;;;;;;;;;;3.70;99.90;;;;;;6698576;88;20064;-79
2023/12/06 10:12:58;;;;;;;;;;;3.70;99.90;;;;;;6686708;88;20624;-79
2023/12/06 10:23:00;;;;;;;;;;;3.90;99.90;;;;;;6685914;88;20075;-78
2023/12/06 10:33:02;;;;;;;;;;;3.90;99.90;;;;;;6686616;88;20067;-78
2023/12/06 10:43:06;;;;;;;;;;;4.00;99.90;;;;;;6686665;88;20559;-81
2023/12/06 10:53:07;;;;;;;;;;;4.00;99.90;;;;;;6687618;88;20538;-77
2023/12/06 11:03:07;;;;;;;;;;;4.20;99.90;;;;;;6689134;88;20078;-79
2023/12/06 11:13:27;;;;;;;;;;;4.20;99.90;;;;;;6686489;88;20055;-78
2023/12/06 11:23:28;;;;;;;;;;;4.30;99.90;;;;;;6669588;89;20073;-78
2023/12/06 11:33:28;;;;;;;;;;;4.40;99.90;;;;;;6673234;88;20061;-77
2023/12/06 11:43:32;;;;;;;;;;;4.50;99.90;;;;;;6676980;88;20064;-78
2023/12/06 11:53:36;;;;;;;;;;;4.50;99.90;;;;;;6669152;89;20085;-78
2023/12/06 12:03:38;;;;;;;;;;;4.50;99.90;;;;;;6668274;89;20515;-77
2023/12/06 12:13:40;;;;;;;;;;;4.60;99.90;;;;;;6668290;89;20080;-78
2023/12/06 12:23:41;;;;;;;;;;;4.70;99.90;;;;;;6668847;89;20065;-78
2023/12/06 12:33:41;;;;;;;;;;;4.80;99.90;;;;;;6668901;89;20061;-80
2023/12/06 12:43:42;;;;;;;;;;;4.90;99.90;;;;;;6667889;89;20579;-79
2023/12/06 12:53:43;;;;;;;;;;;4.90;99.90;;;;;;6667037;89;20608;-77
2023/12/06 13:03:43;;;;;;;;;;;5.00;99.90;;;;;;6668615;89;20334;-78
2023/12/06 13:13:44;;;;;;;;;;;5.10;99.90;;;;;;6668952;89;20567;-78
2023/12/06 13:23:44;;;;;;;;;;;5.20;99.90;;;;;;6668624;89;20052;-78
2023/12/06 13:33:45;;;;;;;;;;;5.30;99.90;;;;;;6668354;89;20097;-78
2023/12/06 13:43:45;;;;;;;;;;;6.40;99.90;;;;;;6667433;89;20066;-77
2023/12/06 13:53:45;;;;;;;;;;;7.90;99.90;;;;;;6667299;89;20130;-77
2023/12/06 14:03:47;;;;;;;;;;;7.40;99.90;;;;;;6667271;89;20052;-78
2023/12/06 14:13:47;;;;;;;;;;;6.60;99.90;;;;;;6667312;89;20104;-78
2023/12/06 14:23:48;;;;;;;;;;;6.20;99.90;;;;;;6671130;89;20188;-79
2023/12/06 14:33:48;;;;;;;;;;;6.00;99.90;;;;;;6674193;89;20243;-79
2023/12/06 14:43:49;;;;;;;;;;;5.70;99.90;;;;;;6674680;89;20060;-79
2023/12/06 14:53:50;;;;;;;;;;;5.50;99.90;;;;;;6673542;89;20544;-78
2023/12/06 15:03:50;;;;;;;;;;;5.40;99.90;;;;;;6675015;89;20090;-78
2023/12/06 15:13:51;;;;;;;;;;;5.30;99.90;;;;;;6674766;89;20048;-79
2023/12/06 15:23:51;;;;;;;;;;;5.20;99.90;;;;;;6675174;89;20064;-79
2023/12/06 15:33:51;;;;;;;;;;;5.10;99.90;;;;;;6678415;89;20606;-79
2023/12/06 15:43:52;;;;;;;;;;;5.10;99.90;;;;;;6676746;89;20083;-79
2023/12/06 15:54:14;;;;;;;;;;;5.10;99.90;;;;;;6705647;77;20079;-80
2023/12/06 16:04:15;;;;;;;;;;;5.00;99.90;;;;;;6728401;88;20068;-80
2023/12/06 16:14:16;;;;;;;;;;;5.10;99.90;;;;;;6720725;88;20063;-81
2023/12/06 16:24:16;;;;;;;;;;;5.10;99.90;;;;;;6721827;88;20091;-81
2023/12/06 16:34:17;;;;;;;;;;;4.90;99.90;;;;;;6715988;88;20094;-81
2023/12/06 16:55:21;;;;;;;;;;;5.00;99.90;;;;;;6733177;88;20103;-80
2023/12/06 17:05:22;;;;;;;;;;;4.90;99.90;;;;;;6709659;88;20093;-79
2023/12/06 17:15:22;;;;;;;;;;;4.80;99.90;;;;;;6708248;88;20156;-82
2023/12/06 17:25:22;;;;;;;;;;;4.70;99.90;;;;;;6709232;88;20062;-80
2023/12/06 17:35:24;;;;;;;;;;;4.80;99.90;;;;;;6690797;89;20132;-81
2023/12/06 17:45:26;;;;;;;;;;;4.90;99.90;;;;;;6721255;88;20068;-80
2023/12/06 17:55:26;;;;;;;;;;;4.90;99.90;;;;;;6699886;88;20055;-81
2023/12/06 18:05:27;;;;;;;;;;;4.80;99.90;;;;;;6710254;88;20055;-83
2023/12/06 18:15:27;;;;;;;;;;;4.20;99.90;;;;;;6717330;88;20059;-82
2023/12/06 18:25:30;;;;;;;;;;;3.90;99.90;;;;;;6706721;88;20079;-79
2023/12/06 18:35:32;;;;;;;;;;;3.80;99.90;;;;;;6712290;88;20074;-82
2023/12/06 18:45:33;;;;;;;;;;;3.80;99.90;;;;;;6708578;88;20026;-82
2023/12/06 18:55:33;;;;;;;;;;;3.60;99.90;;;;;;6717329;88;20118;-81
2023/12/06 19:05:34;;;;;;;;;;;3.50;99.90;;;;;;6717264;88;20530;-81
2023/12/06 19:15:35;;;;;;;;;;;3.30;99.90;;;;;;6719748;88;20174;-80
2023/12/06 19:25:36;;;;;;;;;;;3.40;99.90;;;;;;6717435;88;20072;-81
2023/12/06 19:35:36;;;;;;;;;;;3.30;99.90;;;;;;6719826;88;20056;-83
2023/12/06 19:45:38;;;;;;;;;;;3.30;99.90;;;;;;6716670;88;20473;-82
2023/12/06 19:55:39;;;;;;;;;;;3.20;99.90;;;;;;6721186;88;20067;-81
2023/12/06 20:05:39;;;;;;;;;;;3.40;99.90;;;;;;6723103;88;20064;-81
2023/12/06 20:15:40;;;;;;;;;;;3.40;99.90;;;;;;6723530;88;20060;-82
2023/12/06 20:25:41;;;;;;;;;;;3.30;99.90;;;;;;6713623;88;20063;-82
2023/12/06 20:35:41;;;;;;;;;;;3.30;99.90;;;;;;6711588;88;20593;-82
2023/12/06 20:45:42;;;;;;;;;;;3.30;99.90;;;;;;6707779;88;20186;-82
2023/12/06 20:55:42;;;;;;;;;;;3.10;99.90;;;;;;6708284;88;20098;-85
2023/12/06 21:46:55;;;;;;;;;;;3.10;99.90;;;;;;6736002;88;20166;-82
2023/12/06 21:56:55;;;;;;;;;;;2.90;99.90;;;;;;6754597;88;20149;-83
2023/12/06 22:06:56;;;;;;;;;;;2.70;99.90;;;;;;6754361;88;20166;-83
2023/12/06 22:16:56;;;;;;;;;;;2.90;99.90;;;;;;6751339;88;20086;-84
2023/12/06 22:26:57;;;;;;;;;;;2.70;99.90;;;;;;6752676;88;20065;-83
2023/12/06 22:36:57;;;;;;;;;;;2.50;99.90;;;;;;6749115;88;20084;-82
2023/12/06 22:46:58;;;;;;;;;;;2.10;99.90;;;;;;6754674;88;20069;-83
2023/12/06 22:56:58;;;;;;;;;;;2.00;99.90;;;;;;6762667;88;20054;-82
2023/12/06 23:06:58;;;;;;;;;;;2.00;99.90;;;;;;6763392;88;20053;-83
2023/12/06 23:16:59;;;;;;;;;;;1.80;99.90;;;;;;6762080;88;20049;-82
2023/12/06 23:26:59;;;;;;;;;;;1.60;99.90;;;;;;6757375;88;20038;-82
2023/12/06 23:37:00;;;;;;;;;;;1.70;99.90;;;;;;6760567;88;20069;-82
2023/12/06 23:47:00;;;;;;;;;;;1.50;99.90;;;;;;6759861;88;20129;-80
2023/12/06 23:57:01;;;;;;;;;;;1.50;99.90;;;;;;6761894;88;20584;-82
